Home > Products > Valid Products > TAF

000
FTUS42 KMHX 172300 RRA
TAFEWN
TAF
KEWN 172341Z 1800/1824 07005KT P6SM OVC035
     FM180800 04003KT 5SM BR BKN025
     FM181230 04007KT P6SM VCSH BKN035=



000
FTUS42 KMHX 171700 RRA
TAFEWN
TAF
KEWN 171742Z 1718/1818 07005KT P6SM VCSH SCT025 OVC040
      TEMPO 1720/1723 -RA SCT020 BKN035
     FM180000 06003KT P6SM VCSH OVC035
     FM180800 03005KT 6SM BR BKN025
     FM181300 04007KT P6SM VCSH BKN035=



000
FTUS42 KMHX 171100 AAA
TAFEWN
TAF AMD
KEWN 171141Z 1712/1812 07005KT P6SM BKN020 BKN040 OVC050
     FM171300 07005KT P6SM VCSH OVC050
     FM180400 03005KT P6SM VCSH BKN050 BKN100=



000
FTUS42 KMHX 171100
TAFEWN
TAF
KEWN 171123Z 1712/1812 07005KT P6SM VCSH OVC050
     FM180400 03005KT P6SM VCSH BKN050 BKN100=



000
FTUS42 KMHX 171000 AAF
TAFEWN
TAF AMD
KEWN 171051Z 1711/1806 02010KT 6SM RA BKN035 OVC060
     FM171300 03005KT P6SM VCSH OVC050
     FM171900 07005KT P6SM VCSH BKN050=



000
FTUS42 KMHX 171000 AAE
TAFEWN
TAF AMD
KEWN 171028Z 1710/1806 02010KT 6SM RA BKN025 OVC035
     FM171130 02005KT P6SM BKN040 OVC100
     FM171300 03005KT P6SM VCSH OVC050
     FM171900 07005KT P6SM VCSH BKN050=



000
FTUS42 KMHX 171000 AAD
TAFEWN
TAF AMD
KEWN 171001Z 1710/1806 VRB05KT P6SM VCTS BKN040CB OVC080
      TEMPO 1710/1711 2SM +TSRA BKN009 BKN020 OVC025CB
     FM171100 VRB03KT P6SM BKN040 OVC100
     FM171300 03005KT P6SM VCSH OVC050
     FM171900 07005KT P6SM VCSH BKN050=



000
FTUS42 KMHX 170900 AAC
TAFEWN
TAF AMD
KEWN 170927Z 1709/1806 VRB05KT P6SM VCTS BKN040CB OVC080
      TEMPO 1709/1710 2SM +TSRA BKN025CB
     FM171100 VRB03KT P6SM BKN040 OVC100
     FM171300 03005KT P6SM VCSH OVC050
     FM171900 07005KT P6SM VCSH BKN050=



000
FTUS42 KMHX 170900 AAB
TAFEWN
TAF AMD
KEWN 170901Z 1709/1806 08005KT P6SM VCTS OVC040CB
      TEMPO 1709/1710 2SM +TSRA
     FM171100 VRB03KT P6SM BKN040 OVC100
     FM171300 03005KT P6SM VCSH OVC050
     FM171900 07005KT P6SM VCSH BKN050=



000
FTUS42 KMHX 170600 AAA
TAFEWN
TAF AMD
KEWN 170636Z 1707/1806 00000KT P6SM SCT025 BKN035
     FM170800 00000KT P6SM OVC040
     FM171300 03005KT P6SM VCSH OVC050
     FM171900 07005KT P6SM VCSH BKN050=



000
FTUS42 KMHX 170500
TAFEWN
TAF
KEWN 170528Z 1706/1806 00000KT P6SM SCT110 OVC250
     FM170800 00000KT P6SM OVC040
     FM171300 03005KT P6SM VCSH OVC050
     FM171900 07005KT P6SM VCSH BKN050=



000
FTUS42 KMHX 162300
TAFEWN
TAF
KEWN 162320Z 1700/1724 34005KT P6SM SKC
     FM170300 15003KT P6SM SCT040
     FM170500 03004KT P6SM BKN040
     FM170800 05003KT 5SM BR OVC020
     FM171300 10004KT P6SM SCT030
     FM171900 10005KT P6SM BKN035=



000
FTUS42 KMHX 161700
TAFEWN
TAF
KEWN 161734Z 1618/1718 34005KT P6SM SCT040
     FM170000 VRB03KT P6SM BKN040
     FM170700 00000KT 5SM BR SCT007 BKN025
     FM171500 07008KT P6SM BKN035=



000
FTUS42 KMHX 161100
TAFEWN
TAF
KEWN 161120Z 1612/1712 00000KT P6SM BKN030
     FM161500 27005KT P6SM BKN035
     FM161800 34005KT P6SM SCT040
     FM170000 VRB03KT P6SM BKN040=



000
FTUS42 KMHX 160900 AAC
TAFEWN
TAF AMD
KEWN 160934Z 1610/1706 00000KT P6SM SCT035 BKN100
     FM161500 27005KT P6SM BKN035
     FM161800 34005KT P6SM SCT040
     FM170000 VRB03KT P6SM BKN040=



000
FTUS42 KMHX 160800 AAB
TAFEWN
TAF AMD
KEWN 160803Z 1608/1706 00000KT P6SM OVC025
     FM161500 27005KT P6SM BKN035
     FM161800 34005KT P6SM SCT040
     FM170000 VRB03KT P6SM BKN040=



000
FTUS42 KMHX 160700 AAA
TAFEWN
TAF AMD
KEWN 160700Z 1607/1706 00000KT P6SM BKN040
     FM161500 27005KT P6SM BKN035
     FM161800 34005KT P6SM SCT040
     FM170000 VRB03KT P6SM BKN040=



000
FTUS42 KMHX 160500
TAFEWN
TAF
KEWN 160524Z 1606/1706 00000KT P6SM BKN040
      TEMPO 1609/1612 5SM BR
     FM161500 27005KT P6SM BKN035
     FM161800 34005KT P6SM SCT040
     FM170000 VRB03KT P6SM BKN040=



000
FTUS42 KMHX 152300
TAFEWN
TAF
KEWN 152340Z 1600/1624 00000KT P6SM BKN027 OVC035
     FM160700 00000KT 5SM BR BKN010
     FM161500 32004KT P6SM BKN035
     FM161800 16005KT P6SM SCT040=



000
FTUS42 KMHX 151700 RRA
TAFEWN
TAF
KEWN 151742Z 1518/1618 VRB05KT P6SM OVC035
     FM152000 VRB03KT P6SM BKN040
     FM160700 00000KT 5SM BR BKN010
     FM161500 32004KT P6SM BKN035=



000
FTUS42 KMHX 151100
TAFEWN
TAF
KEWN 151121Z 1512/1612 02005KT P6SM BKN025 OVC040
     FM151500 04005KT P6SM BKN050
     FM152000 09005KT P6SM BKN050
     FM152300 15005KT P6SM BKN100
     FM160700 19005KT P6SM OVC050=



000
FTUS42 KMHX 150900 AAC
TAFEWN
TAF AMD
KEWN 150901Z 1509/1606 02005KT P6SM OVC040
     FM151600 04005KT P6SM BKN050
     FM152000 09005KT P6SM BKN050
     FM152300 15005KT P6SM BKN100=



000
FTUS42 KMHX 150600 AAB
TAFEWN
TAF AMD
KEWN 150639Z 1507/1606 06005KT P6SM OVC040
     FM150900 04005KT P6SM OVC025
     FM151600 04005KT P6SM BKN050
     FM152000 09005KT P6SM BKN050
     FM152300 15005KT P6SM BKN100=



000
FTUS42 KMHX 150500 AAA
TAFEWN
TAF AMD
KEWN 150542Z 1506/1606 06005KT P6SM BKN030
     FM150900 04005KT P6SM OVC025
     FM151600 04005KT P6SM BKN050
     FM152000 09005KT P6SM BKN050
     FM152300 15005KT P6SM BKN100=



000
FTUS42 KMHX 150500
TAFEWN
TAF
KEWN 150524Z 1506/1606 06005KT P6SM BKN040
     FM150900 04005KT P6SM OVC025
     FM151600 04005KT P6SM BKN050
     FM152000 09005KT P6SM BKN050
     FM152300 15005KT P6SM BKN100=



    US Dept of Commerce
    National Oceanic and Atmospheric Administration
    National Weather Service
    1325 East West Highway
    Silver Spring, MD 20910
    Page Author: NWS Internet Services Team
Disclaimer
Information Quality
Credits
Glossary
Privacy Policy
Freedom of Information Act (FOIA)
About Us
Career Opportunities